createdAt,value
2024-02-04T00:01:48.354Z,97567.60
2024-02-04T00:04:16.878Z,97567.20
2024-02-04T00:06:45.362Z,97560.80
2024-02-04T00:09:20.076Z,97561.20
2024-02-04T00:11:48.803Z,97560.60
2024-02-04T00:14:17.199Z,97561.40
2024-02-04T00:16:48.499Z,97555.80
2024-02-04T00:19:37.289Z,97548.80
2024-02-04T00:22:19.830Z,97551.60
2024-02-04T00:24:50.882Z,97552.60
2024-02-04T00:27:19.624Z,97557.60
2024-02-04T00:29:48.296Z,97571.00
2024-02-04T00:32:17.109Z,97576.80
2024-02-04T00:34:45.571Z,97575.60
2024-02-04T00:37:16.757Z,97567.00
2024-02-04T00:39:50.910Z,97554.80
2024-02-04T00:42:19.666Z,97557.00
2024-02-04T00:44:47.820Z,97558.80
2024-02-04T00:47:24.986Z,97566.20
2024-02-04T00:49:53.386Z,97561.80
2024-02-04T00:52:44.980Z,97560.40
2024-02-04T00:55:16.382Z,97561.60
2024-02-04T00:57:44.945Z,97564.60
2024-02-04T01:00:16.583Z,97551.40
2024-02-04T01:02:45.453Z,97550.80
2024-02-04T01:05:22.700Z,97547.40
2024-02-04T01:07:53.930Z,97545.80
2024-02-04T01:10:22.672Z,97539.40
2024-02-04T01:12:51.176Z,97536.40
2024-02-04T01:15:19.324Z,97532.60
2024-02-04T01:17:47.669Z,97527.40
2024-02-04T01:20:16.128Z,97525.20
2024-02-04T01:22:44.594Z,97523.40
2024-02-04T01:25:13.185Z,97524.20
2024-02-04T01:27:43.181Z,97514.40
2024-02-04T01:30:11.682Z,97513.40
2024-02-04T01:32:39.953Z,97516.20
2024-02-04T01:35:09.373Z,97514.80
2024-02-04T01:37:40.819Z,97513.80
2024-02-04T01:40:12.200Z,97514.20
2024-02-04T01:42:49.235Z,97517.00
2024-02-04T01:45:17.859Z,97521.60
2024-02-04T01:47:46.395Z,97521.40
2024-02-04T01:50:14.910Z,97516.00
2024-02-04T01:52:43.297Z,97510.00
2024-02-04T01:55:11.783Z,97514.20
2024-02-04T01:57:41.034Z,97518.60
2024-02-04T02:00:10.738Z,97523.80
2024-02-04T02:02:41.147Z,97520.80
2024-02-04T02:05:10.593Z,97512.00
2024-02-04T02:07:39.132Z,97503.80
2024-02-04T02:10:10.313Z,97509.00
2024-02-04T02:12:51.826Z,97511.40
2024-02-04T02:15:33.301Z,97514.20
2024-02-04T02:18:33.322Z,97518.80
2024-02-04T02:21:39.044Z,97518.40
2024-02-04T02:24:10.419Z,97528.40
2024-02-04T02:26:41.972Z,97516.60
2024-02-04T02:29:10.843Z,97515.60
2024-02-04T02:31:47.306Z,97515.40
2024-02-04T02:34:30.222Z,97520.40
2024-02-04T02:37:23.108Z,97518.20
2024-02-04T02:40:11.903Z,97518.60
2024-02-04T02:42:40.245Z,97507.60
2024-02-04T02:45:11.493Z,97507.80
2024-02-04T02:47:39.970Z,97512.60
2024-02-04T02:50:09.366Z,97509.20
2024-02-04T02:52:38.000Z,97519.60
2024-02-04T02:55:06.645Z,97523.00
2024-02-04T02:57:34.920Z,97529.00
2024-02-04T03:00:04.926Z,97525.00
2024-02-04T03:02:33.863Z,97521.80
2024-02-04T03:05:22.662Z,97517.20
2024-02-04T03:07:51.008Z,97504.40
2024-02-04T03:10:22.034Z,97492.60
2024-02-04T03:12:59.153Z,97486.60
2024-02-04T03:15:34.973Z,97478.80
2024-02-04T03:18:04.122Z,97487.60
2024-02-04T03:20:32.729Z,97495.20
2024-02-04T03:23:09.256Z,97496.40
2024-02-04T03:25:44.639Z,97497.60
2024-02-04T03:28:15.714Z,97494.60
2024-02-04T03:30:44.302Z,97500.40
2024-02-04T03:33:12.754Z,97501.00
2024-02-04T03:35:41.544Z,97496.40
2024-02-04T03:38:09.925Z,97498.20
2024-02-04T03:40:44.030Z,97503.20
2024-02-04T03:43:12.457Z,97500.40
2024-02-04T03:45:43.849Z,97497.00
2024-02-04T03:48:12.369Z,97496.40
2024-02-04T03:50:46.155Z,97491.80
2024-02-04T03:53:14.559Z,97493.60
2024-02-04T03:55:50.412Z,97501.00
2024-02-04T03:58:41.026Z,97496.00
2024-02-04T04:01:13.513Z,97502.00
2024-02-04T04:03:56.230Z,97493.00
2024-02-04T04:06:29.552Z,97489.80
2024-02-04T04:09:00.381Z,97482.20
2024-02-04T04:11:31.147Z,97481.80
2024-02-04T04:14:02.428Z,97485.60
2024-02-04T04:16:30.676Z,97489.00
2024-02-04T04:19:02.304Z,97493.20
2024-02-04T04:21:33.299Z,97493.40
2024-02-04T04:24:01.638Z,97501.80
2024-02-04T04:26:32.745Z,97500.60
2024-02-04T04:29:08.463Z,97492.80
2024-02-04T04:31:36.766Z,97484.60
2024-02-04T04:34:07.691Z,97485.60
2024-02-04T04:36:36.320Z,97483.20
2024-02-04T04:39:04.887Z,97488.80
2024-02-04T04:41:33.554Z,97496.80
2024-02-04T04:44:04.537Z,97494.20
2024-02-04T04:46:32.868Z,97488.60
2024-02-04T04:49:01.511Z,97487.00
2024-02-04T04:51:33.387Z,97494.80
2024-02-04T04:54:04.324Z,97498.20
2024-02-04T04:56:43.077Z,97498.40
2024-02-04T04:59:12.016Z,97491.20
2024-02-04T05:01:47.534Z,97486.40
2024-02-04T05:04:17.664Z,97499.00
2024-02-04T05:06:46.095Z,97495.80
2024-02-04T05:09:14.815Z,97492.20
2024-02-04T05:11:43.156Z,97500.40
2024-02-04T05:14:11.814Z,97501.80
2024-02-04T05:16:40.053Z,97517.80
2024-02-04T05:19:08.492Z,97523.00
2024-02-04T05:21:40.272Z,97526.80
2024-02-04T05:24:08.370Z,97528.60
2024-02-04T05:26:36.873Z,97525.40
2024-02-04T05:29:05.084Z,97526.20
2024-02-04T05:31:33.534Z,97530.40
2024-02-04T05:34:07.050Z,97528.60
2024-02-04T05:36:43.346Z,97529.20
2024-02-04T05:39:12.934Z,97526.20
2024-02-04T05:41:43.826Z,97521.20
2024-02-04T05:44:12.460Z,97521.80
2024-02-04T05:46:41.050Z,97519.40
2024-02-04T05:49:15.866Z,97528.20
2024-02-04T05:51:44.657Z,97524.60
2024-02-04T05:54:23.861Z,97523.00
2024-02-04T05:56:52.400Z,97519.80
2024-02-04T05:59:20.821Z,97520.00
2024-02-04T06:01:49.187Z,97500.60
2024-02-04T06:04:17.714Z,97482.60
2024-02-04T06:06:47.403Z,97486.40
2024-02-04T06:09:16.341Z,97494.40
2024-02-04T06:11:47.958Z,97484.00
2024-02-04T06:14:16.435Z,97490.00
2024-02-04T06:16:45.054Z,97487.40
2024-02-04T06:19:15.746Z,97483.80
2024-02-04T06:21:44.394Z,97483.00
2024-02-04T06:24:21.495Z,97480.60
2024-02-04T06:27:10.277Z,97488.20
2024-02-04T06:29:40.772Z,97497.00
2024-02-04T06:32:09.397Z,97499.40
2024-02-04T06:34:41.394Z,97495.20
2024-02-04T06:37:09.973Z,97499.00
2024-02-04T06:39:38.956Z,97495.40
2024-02-04T06:42:07.230Z,97498.80
2024-02-04T06:44:38.490Z,97509.20
2024-02-04T06:47:06.962Z,97505.40
2024-02-04T06:49:35.516Z,97514.00
2024-02-04T06:52:06.734Z,97510.00
2024-02-04T06:54:37.919Z,97515.40
2024-02-04T06:57:06.204Z,97534.00
2024-02-04T06:59:34.709Z,97539.80
2024-02-04T07:02:03.132Z,97552.20
2024-02-04T07:04:31.306Z,97557.20
2024-02-04T07:06:59.717Z,97554.60
2024-02-04T07:09:27.957Z,97543.80
2024-02-04T07:11:56.046Z,97542.00
2024-02-04T07:14:24.192Z,97534.00
2024-02-04T07:16:52.372Z,97526.40
2024-02-04T07:19:20.628Z,97513.40
2024-02-04T07:21:49.171Z,97512.20
2024-02-04T07:24:17.476Z,97502.40
2024-02-04T07:26:46.860Z,97504.00
2024-02-04T07:29:23.713Z,97497.40
2024-02-04T07:31:51.927Z,97501.40
2024-02-04T07:34:26.553Z,97493.80
2024-02-04T07:36:54.907Z,97498.00
2024-02-04T07:39:26.261Z,97499.00
2024-02-04T07:42:06.386Z,97510.80
2024-02-04T07:44:34.736Z,97516.40
2024-02-04T07:47:02.936Z,97514.80
2024-02-04T07:49:43.538Z,97520.60
2024-02-04T07:52:14.427Z,97523.40
2024-02-04T07:54:53.217Z,97524.40
2024-02-04T07:57:21.793Z,97528.20
2024-02-04T07:59:50.060Z,97533.20
2024-02-04T08:02:21.076Z,97546.40
2024-02-04T08:04:49.511Z,97549.00
2024-02-04T08:07:18.927Z,97556.40
2024-02-04T08:09:47.619Z,97556.40
2024-02-04T08:12:21.005Z,97557.40
2024-02-04T08:14:52.432Z,97568.60
2024-02-04T08:17:21.095Z,97565.20
2024-02-04T08:19:52.917Z,97568.40
2024-02-04T08:22:21.533Z,97570.20
2024-02-04T08:24:49.908Z,97561.60
2024-02-04T08:27:19.254Z,97554.20
2024-02-04T08:29:56.970Z,97562.20
2024-02-04T08:32:45.950Z,97559.00
2024-02-04T08:35:14.449Z,97548.60
2024-02-04T08:37:42.959Z,97554.80
2024-02-04T08:40:31.785Z,97553.60
2024-02-04T08:43:03.806Z,97553.20
2024-02-04T08:45:32.154Z,97536.00
2024-02-04T08:48:00.450Z,97544.40
2024-02-04T08:50:29.131Z,97542.20
2024-02-04T08:52:57.509Z,97542.60
2024-02-04T08:55:25.787Z,97547.20
2024-02-04T08:57:54.568Z,97545.20
2024-02-04T09:00:31.571Z,97551.00
2024-02-04T09:03:03.517Z,97554.20
2024-02-04T09:05:35.622Z,97557.60
2024-02-04T09:08:04.362Z,97554.20
2024-02-04T09:10:32.878Z,97551.00
2024-02-04T09:13:01.230Z,97532.60
2024-02-04T09:15:51.014Z,97527.40
2024-02-04T09:18:19.645Z,97539.20
2024-02-04T09:20:49.183Z,97545.40
2024-02-04T09:23:18.018Z,97535.60
2024-02-04T09:25:46.558Z,97533.80
2024-02-04T09:28:15.218Z,97522.20
2024-02-04T09:30:43.590Z,97518.80
2024-02-04T09:33:12.178Z,97507.80
2024-02-04T09:35:43.307Z,97500.40
2024-02-04T09:38:14.606Z,97488.40
2024-02-04T09:40:43.306Z,97490.60
2024-02-04T09:43:11.993Z,97494.60
2024-02-04T09:45:46.148Z,97492.60
2024-02-04T09:48:14.752Z,97499.00
2024-02-04T09:50:43.026Z,97495.40
2024-02-04T09:53:11.572Z,97491.80
2024-02-04T09:55:45.467Z,97492.60
2024-02-04T09:58:24.379Z,97482.40
2024-02-04T10:00:59.895Z,97488.60
2024-02-04T10:03:37.132Z,97488.40
2024-02-04T10:06:26.334Z,97495.40
2024-02-04T10:09:04.266Z,97493.00
2024-02-04T10:11:46.385Z,97495.60
2024-02-04T10:14:26.127Z,97486.40
2024-02-04T10:16:54.711Z,97487.60
2024-02-04T10:19:26.496Z,97483.20
2024-02-04T10:22:05.324Z,97480.40
2024-02-04T10:24:34.007Z,97487.00
2024-02-04T10:27:29.615Z,97477.40
2024-02-04T10:30:44.956Z,97462.20
2024-02-04T10:33:36.525Z,97455.00
2024-02-04T10:36:05.681Z,97463.80
2024-02-04T10:38:54.586Z,97450.60
2024-02-04T10:41:25.811Z,97444.40
2024-02-04T10:43:57.481Z,97438.00
2024-02-04T10:46:29.778Z,97423.40
2024-02-04T10:49:11.288Z,97418.00
2024-02-04T10:51:39.715Z,97428.80
2024-02-04T10:54:19.295Z,97425.60
2024-02-04T10:57:04.413Z,97424.80
2024-02-04T10:59:35.975Z,97423.40
2024-02-04T11:02:07.802Z,97418.00
2024-02-04T11:04:43.764Z,97419.40
2024-02-04T11:07:15.643Z,97412.00
2024-02-04T11:09:51.172Z,97407.00
2024-02-04T11:12:20.397Z,97403.60
2024-02-04T11:14:51.648Z,97398.80
2024-02-04T11:17:31.155Z,97404.40
2024-02-04T11:20:36.707Z,97399.00
2024-02-04T11:23:47.788Z,97400.80
2024-02-04T11:26:16.323Z,97399.00
2024-02-04T11:28:44.960Z,97407.60
2024-02-04T11:31:17.465Z,97399.20
2024-02-04T11:33:49.592Z,97399.40
2024-02-04T11:36:19.875Z,97403.60
2024-02-04T11:38:49.551Z,97406.60
2024-02-04T11:41:28.626Z,97407.60
2024-02-04T11:44:01.070Z,97407.40
2024-02-04T11:46:36.320Z,97408.40
2024-02-04T11:49:05.482Z,97408.40
2024-02-04T11:51:33.925Z,97407.20
2024-02-04T11:54:06.260Z,97404.40
2024-02-04T11:56:37.024Z,97401.00
2024-02-04T11:59:06.147Z,97399.00
2024-02-04T12:01:37.690Z,97389.40
2024-02-04T12:04:16.487Z,97391.20
2024-02-04T12:06:45.018Z,97396.00
2024-02-04T12:09:17.785Z,97394.60
2024-02-04T12:11:46.149Z,97405.60
2024-02-04T12:14:14.301Z,97413.60
2024-02-04T12:16:42.394Z,97408.00
2024-02-04T12:19:10.841Z,97414.40
2024-02-04T12:21:39.267Z,97414.40
2024-02-04T12:24:07.773Z,97424.80
2024-02-04T12:26:36.542Z,97432.60
2024-02-04T12:29:05.077Z,97428.00
2024-02-04T12:31:34.354Z,97432.60
2024-02-04T12:34:03.727Z,97434.20
2024-02-04T12:36:32.967Z,97437.80
2024-02-04T12:39:03.023Z,97439.00
2024-02-04T12:41:35.634Z,97444.20
2024-02-04T12:44:06.942Z,97435.60
2024-02-04T12:46:35.202Z,97433.80
2024-02-04T12:49:06.637Z,97423.60
2024-02-04T12:51:35.560Z,97413.40
2024-02-04T12:54:07.161Z,97417.20
2024-02-04T12:56:51.694Z,97413.80
2024-02-04T12:59:29.711Z,97418.00
2024-02-04T13:02:00.464Z,97422.80
2024-02-04T13:04:38.073Z,97436.40
2024-02-04T13:07:11.095Z,97427.40
2024-02-04T13:09:40.276Z,97428.60
2024-02-04T13:12:10.939Z,97433.80
2024-02-04T13:14:39.790Z,97431.20
2024-02-04T13:17:09.001Z,97427.80
2024-02-04T13:19:38.251Z,97428.00
2024-02-04T13:22:17.923Z,97426.00
2024-02-04T13:25:02.720Z,97421.80
2024-02-04T13:27:31.470Z,97423.60
2024-02-04T13:29:59.716Z,97424.80
2024-02-04T13:32:29.625Z,97429.40
2024-02-04T13:35:05.883Z,97428.80
2024-02-04T13:37:41.589Z,97423.40
2024-02-04T13:40:16.986Z,97430.80
2024-02-04T13:42:45.468Z,97426.20
2024-02-04T13:45:17.708Z,97426.20
2024-02-04T13:47:48.509Z,97417.40
2024-02-04T13:50:17.133Z,97412.40
2024-02-04T13:52:48.814Z,97409.20
2024-02-04T13:55:17.517Z,97410.60
2024-02-04T13:57:51.642Z,97401.20
2024-02-04T14:00:28.737Z,97400.00
2024-02-04T14:03:17.465Z,97396.20
2024-02-04T14:06:28.611Z,97400.20
2024-02-04T14:09:06.854Z,97393.60
2024-02-04T14:11:35.707Z,97391.80
2024-02-04T14:14:07.065Z,97396.80
2024-02-04T14:16:35.400Z,97404.00
2024-02-04T14:19:24.038Z,97401.40
2024-02-04T14:22:03.296Z,97392.60
2024-02-04T14:24:34.741Z,97385.40
2024-02-04T14:27:04.068Z,97393.40
2024-02-04T14:29:35.213Z,97395.60
2024-02-04T14:32:06.563Z,97394.00
2024-02-04T14:34:39.026Z,97392.60
2024-02-04T14:37:16.595Z,97387.40
2024-02-04T14:39:45.126Z,97390.80
2024-02-04T14:42:19.658Z,97389.40
2024-02-04T14:44:57.976Z,97399.40
2024-02-04T14:47:31.197Z,97393.40
2024-02-04T14:50:00.239Z,97391.80
2024-02-04T14:52:34.789Z,97392.00
2024-02-04T14:55:13.067Z,97392.20
2024-02-04T14:57:51.824Z,97400.40
2024-02-04T15:00:25.804Z,97401.00
2024-02-04T15:02:57.451Z,97400.40
2024-02-04T15:05:29.426Z,97393.80
2024-02-04T15:07:59.033Z,97393.80
2024-02-04T15:10:34.133Z,97391.40
2024-02-04T15:13:03.118Z,97391.60
2024-02-04T15:15:41.288Z,97387.80
2024-02-04T15:18:35.601Z,97381.40
2024-02-04T15:21:28.144Z,97373.20
2024-02-04T15:24:05.894Z,97363.80
2024-02-04T15:26:38.312Z,97362.80
2024-02-04T15:29:09.728Z,97364.20
2024-02-04T15:31:51.497Z,97368.80
2024-02-04T15:34:51.380Z,97365.40
2024-02-04T15:37:24.250Z,97360.60
2024-02-04T15:39:52.843Z,97358.60
2024-02-04T15:42:24.154Z,97364.60
2024-02-04T15:45:06.065Z,97373.40
2024-02-04T15:48:02.493Z,97367.80
2024-02-04T15:50:36.550Z,97374.60
2024-02-04T15:53:10.746Z,97373.40
2024-02-04T15:55:49.025Z,97364.60
2024-02-04T15:58:31.624Z,97358.40
2024-02-04T16:01:13.793Z,97361.00
2024-02-04T16:03:43.697Z,97367.20
2024-02-04T16:06:13.187Z,97365.00
2024-02-04T16:08:45.834Z,97366.60
2024-02-04T16:11:23.169Z,97365.00
2024-02-04T16:13:52.542Z,97360.40
2024-02-04T16:16:39.665Z,97368.60
2024-02-04T16:19:13.900Z,97372.20
2024-02-04T16:21:42.709Z,97374.40
2024-02-04T16:24:14.020Z,97372.60
2024-02-04T16:26:42.661Z,97374.60
2024-02-04T16:29:30.402Z,97375.60
2024-02-04T16:32:12.495Z,97373.20
2024-02-04T16:34:42.359Z,97369.60
2024-02-04T16:37:20.116Z,97370.80
2024-02-04T16:39:51.965Z,97373.00
2024-02-04T16:42:36.503Z,97373.40
2024-02-04T16:45:25.827Z,97372.20
2024-02-04T16:48:01.889Z,97372.40
2024-02-04T16:50:33.405Z,97370.00
2024-02-04T16:53:12.007Z,97359.40
2024-02-04T16:55:42.974Z,97366.20
2024-02-04T16:58:11.586Z,97366.00
2024-02-04T17:00:45.478Z,97367.60
2024-02-04T17:03:17.601Z,97362.00
2024-02-04T17:05:59.183Z,97369.40
2024-02-04T17:08:50.982Z,97366.80
2024-02-04T17:11:23.964Z,97370.60
2024-02-04T17:14:15.073Z,97364.80
2024-02-04T17:16:54.969Z,97356.20
2024-02-04T17:20:14.761Z,97355.80
2024-02-04T17:22:45.347Z,97349.80
2024-02-04T17:25:19.464Z,97340.40
2024-02-04T17:28:10.431Z,97340.40
2024-02-04T17:31:01.053Z,97345.60
2024-02-04T17:33:32.877Z,97350.80
2024-02-04T17:36:01.509Z,97347.60
2024-02-04T17:38:33.769Z,97346.80
2024-02-04T17:41:09.781Z,97337.20
2024-02-04T17:43:46.852Z,97336.00
2024-02-04T17:46:15.488Z,97332.80
2024-02-04T17:48:46.886Z,97328.80
2024-02-04T17:51:18.781Z,97331.60
2024-02-04T17:53:48.055Z,97329.80
2024-02-04T17:56:20.395Z,97333.00
2024-02-04T17:59:00.885Z,97332.00
2024-02-04T18:01:29.826Z,97334.60
2024-02-04T18:04:07.216Z,97334.40
2024-02-04T18:06:44.870Z,97327.40
2024-02-04T18:09:18.285Z,97329.40
2024-02-04T18:12:08.058Z,97324.60
2024-02-04T18:14:40.376Z,97325.80
2024-02-04T18:17:17.921Z,97321.60
2024-02-04T18:19:47.060Z,97311.20
2024-02-04T18:22:15.578Z,97306.20
2024-02-04T18:25:06.244Z,97296.00
2024-02-04T18:27:38.348Z,97293.60
2024-02-04T18:30:13.863Z,97295.60
2024-02-04T18:32:42.294Z,97290.80
2024-02-04T18:35:11.033Z,97292.60
2024-02-04T18:38:02.568Z,97287.40
2024-02-04T18:40:38.008Z,97285.20
2024-02-04T18:43:06.603Z,97288.00
2024-02-04T18:45:35.859Z,97285.20
2024-02-04T18:48:06.403Z,97283.40
2024-02-04T18:51:27.202Z,97287.20
2024-02-04T18:54:49.523Z,97291.60
2024-02-04T18:57:47.087Z,97290.60
2024-02-04T19:00:49.433Z,97291.40
2024-02-04T19:03:41.097Z,97291.40
2024-02-04T19:06:13.119Z,97285.60
2024-02-04T19:09:46.926Z,97294.60
2024-02-04T19:13:01.314Z,97291.80
2024-02-04T19:16:32.460Z,97299.40
2024-02-04T19:19:49.778Z,97303.80
2024-02-04T19:22:48.495Z,97292.20
2024-02-04T19:26:23.214Z,97291.20
2024-02-04T19:29:19.888Z,97285.80
2024-02-04T19:31:59.715Z,97276.80
2024-02-04T19:34:49.033Z,97265.60
2024-02-04T19:38:10.622Z,97261.40
2024-02-04T19:41:22.984Z,97247.80
2024-02-04T19:44:46.854Z,97242.20
2024-02-04T19:47:28.799Z,97236.20
2024-02-04T19:50:49.622Z,97240.00
2024-02-04T19:54:06.171Z,97236.80
2024-02-04T19:57:04.300Z,97224.80
2024-02-04T20:00:23.993Z,97222.80
2024-02-04T20:03:20.044Z,97225.00
2024-02-04T20:06:49.367Z,97218.80
2024-02-04T20:10:04.015Z,97213.20
2024-02-04T20:13:32.470Z,97212.00
2024-02-04T20:16:58.859Z,97205.20
2024-02-04T20:19:48.554Z,97196.60
2024-02-04T20:22:22.005Z,97198.40
2024-02-04T20:24:54.477Z,97185.20
2024-02-04T20:27:38.960Z,97185.00
2024-02-04T20:30:35.680Z,97180.40
2024-02-04T20:34:24.960Z,97188.80
2024-02-04T20:38:02.174Z,97180.80
2024-02-04T20:41:24.078Z,97182.00
2024-02-04T20:45:13.849Z,97186.80
2024-02-04T20:48:46.496Z,97182.80
2024-02-04T20:51:17.294Z,97184.40
2024-02-04T20:53:51.161Z,97180.60
2024-02-04T20:56:22.780Z,97177.40
2024-02-04T20:58:51.372Z,97183.40
2024-02-04T21:01:22.094Z,97181.40
2024-02-04T21:03:50.920Z,97174.40
2024-02-04T21:06:32.442Z,97169.40
2024-02-04T21:09:01.039Z,97163.40
2024-02-04T21:11:34.376Z,97154.40
2024-02-04T21:14:04.299Z,97143.00
2024-02-04T21:16:32.708Z,97141.40
2024-02-04T21:19:08.722Z,97140.40
2024-02-04T21:21:43.486Z,97135.80
2024-02-04T21:24:33.468Z,97131.60
2024-02-04T21:27:47.708Z,97131.00
2024-02-04T21:30:47.688Z,97137.40
2024-02-04T21:33:39.396Z,97133.20
2024-02-04T21:36:22.259Z,97137.80
2024-02-04T21:39:06.160Z,97131.60
2024-02-04T21:41:39.224Z,97129.40
2024-02-04T21:44:14.711Z,97126.20
2024-02-04T21:47:04.458Z,97118.20
2024-02-04T21:49:58.015Z,97115.80
2024-02-04T21:52:47.244Z,97122.60
2024-02-04T21:55:39.213Z,97122.60
2024-02-04T21:58:18.357Z,97129.80
2024-02-04T22:00:46.938Z,97130.80
2024-02-04T22:03:24.449Z,97131.80
2024-02-04T22:05:53.209Z,97134.20
2024-02-04T22:08:32.021Z,97137.60
2024-02-04T22:11:20.795Z,97136.60
2024-02-04T22:13:49.602Z,97141.80
2024-02-04T22:16:29.796Z,97149.80
2024-02-04T22:18:58.198Z,97139.20
2024-02-04T22:21:36.722Z,97135.80
2024-02-04T22:24:05.417Z,97132.60
2024-02-04T22:26:36.966Z,97133.80
2024-02-04T22:29:25.695Z,97134.60
2024-02-04T22:32:14.176Z,97130.80
2024-02-04T22:34:42.619Z,97131.00
2024-02-04T22:37:13.449Z,97130.20
2024-02-04T22:39:42.245Z,97130.80
2024-02-04T22:42:21.802Z,97126.00
2024-02-04T22:44:53.480Z,97118.60
2024-02-04T22:47:42.471Z,97116.80
2024-02-04T22:50:17.395Z,97114.80
2024-02-04T22:52:54.036Z,97116.80
2024-02-04T22:55:28.262Z,97106.00
2024-02-04T22:58:15.217Z,97095.20
2024-02-04T23:00:51.870Z,97094.40
2024-02-04T23:03:30.408Z,97092.80
2024-02-04T23:05:58.798Z,97075.20
2024-02-04T23:08:46.728Z,97076.60
2024-02-04T23:11:28.100Z,97080.40
2024-02-04T23:14:16.837Z,97075.20
2024-02-04T23:16:47.880Z,97076.00
2024-02-04T23:19:21.183Z,97067.80
2024-02-04T23:22:04.946Z,97068.40
2024-02-04T23:24:37.649Z,97083.40
2024-02-04T23:27:09.772Z,97078.20
2024-02-04T23:29:41.470Z,97072.20
2024-02-04T23:32:30.334Z,97068.20
2024-02-04T23:35:06.333Z,97067.60
2024-02-04T23:37:40.587Z,97071.20
2024-02-04T23:40:13.114Z,97074.20
2024-02-04T23:43:24.710Z,97068.20
2024-02-04T23:46:15.742Z,97058.60
2024-02-04T23:49:16.307Z,97067.80
2024-02-04T23:52:05.637Z,97068.00
2024-02-04T23:54:34.439Z,97069.00
2024-02-04T23:57:25.446Z,97065.80
2024-02-04T23:59:57.141Z,97080.00
